SAWJ/ULA METAR and TAF weather

Enter ICAO airport designator
Station Type Date Time Source
SAWJ METAR 2022/09/26 18:43 UTC NOAA

SAWJ 261843Z 20023KT 9999 SCT030 SCT035CB 10/02 Q0999 RMK CB OBS TO S


Station Type Date Time Source
SAWJ Decoded METAR 2022/09/26 18:43 UTC NOAA

San Julian Aerodrome, Argentina (SAWJ) 49-19S 067-45W 62M
Sep 26, 2022 - 02:43 PM EDT / 2022.09.26 1843 UTC
Wind: from the SSW (200 degrees) at 26 MPH (23 KT):0
Visibility: greater than 7 mile(s):0
Sky conditions: partly cloudy
Weather: Cumulonimbus clouds observed
Temperature: 50 F (10 C)
Dew Point: 35 F (2 C)
Relative Humidity: 57%
Pressure (altimeter): 29.50 in. Hg (0999 hPa)
ob: SAWJ 261843Z 20023KT 9999 SCT030 SCT035CB 10/02 Q0999 RMK CB OBS TO S
cycle: 18

Station Type Date Time Source
SAWJ TAF 2014/06/25 12:00 UTC NOAA

TAF SAWJ 251100Z 2512/2612 32025G35KT 9999 -RA BKN030 BKN045 TX06/2518Z TN02/2611Z
BECMG 2518/2520 29020G30KT NSW SCT030
BECMG 2609/2611 23020G30KT SHSN OVC015

Example: see airport list